PWSweather.com
Personal Weather Stations
Station Observations

ChardChardGB

Lat: 50.877408, Lon: -2.94964741

Elevation: 341

Station Type: WS3083

http://www.merriott-astro.co.uk/weather/index.htm

High Low Average
Temperature 56.5°F13.6°C 43.3°F6.3°C 51.0°F10.6°C
Dew Point 46.7°F8.2°C 35.8°F2.1°C 42.7°F5.9°C
Winds 17.0 mph 27.4 kmh 3.1 mph 5.0 kmh 8.0 mph SSW12.9 kmh SSW
Wind Gusts 22.1 mph35.6 kmh 4.5 mph7.2 kmh 12.0 mph19.3 kmh
Humidity 84% 51% 74%
Pressure 29.41 in995.9 mb 29.23 in989.8 mb -
Precipitation 0.15 in3.8 mm - -
Hour Temp Dew Point Humidity Winds Wind Gusts Pressure Precip Precip Rate Daily Precip Total
12:00 AM 51.3°F10.7°C 46.3°F7.9°C 83% 8.8 mph S14.2 kmh S 11.4 mph18.3 kmh 29.41 in995.9 mb 0.00 in0.0 mm 0.00 in0.0 mm 0.00 in0.0 mm
12:10 AM 51.3°F10.7°C 46.3°F7.9°C 83% 9.2 mph S14.8 kmh S 14.5 mph23.3 kmh 29.41 in995.9 mb 0.00 in0.0 mm 0.00 in0.0 mm 0.00 in0.0 mm
12:20 AM 51.3°F10.7°C 46.3°F7.9°C 83% 7.6 mph S12.2 kmh S 11.4 mph18.3 kmh 29.41 in995.9 mb 0.00 in0.0 mm 0.00 in0.0 mm 0.00 in0.0 mm
12:30 AM 51.3°F10.7°C 46.3°F7.9°C 83% 6.6 mph S10.6 kmh S 9.8 mph15.8 kmh 29.41 in995.9 mb 0.00 in0.0 mm 0.00 in0.0 mm 0.00 in0.0 mm
12:40 AM 51.3°F10.7°C 46.3°F7.9°C 83% 8.0 mph SSE12.9 kmh SSE 10.7 mph17.2 kmh 29.41 in995.9 mb 0.00 in0.0 mm 0.00 in0.0 mm 0.00 in0.0 mm
12:50 AM 51.3°F10.7°C 46.3°F7.9°C 83% 8.3 mph S13.4 kmh S 13.0 mph20.9 kmh 29.41 in995.9 mb 0.00 in0.0 mm 0.00 in0.0 mm 0.00 in0.0 mm
01:00 AM 51.1°F10.6°C 46.1°F7.8°C 83% 8.2 mph S13.2 kmh S 9.8 mph15.8 kmh 29.41 in995.9 mb 0.00 in0.0 mm 0.00 in0.0 mm 0.00 in0.0 mm
01:10 AM 51.1°F10.6°C 46.1°F7.8°C 83% 6.9 mph S11.1 kmh S 9.2 mph14.8 kmh 29.40 in995.6 mb 0.01 in0.3 mm 0.06 in1.5 mm 0.01 in0.3 mm
01:20 AM 51.1°F10.6°C 46.4°F8.0°C 84% 5.5 mph S8.9 kmh S 8.3 mph13.4 kmh 29.40 in995.6 mb 0.02 in0.5 mm 0.06 in1.5 mm 0.02 in0.5 mm
01:30 AM 51.1°F10.6°C 46.4°F8.0°C 84% 7.9 mph SSW12.7 kmh SSW 9.8 mph15.8 kmh 29.39 in995.3 mb 0.02 in0.5 mm 0.00 in0.0 mm 0.02 in0.5 mm
01:40 AM 51.1°F10.6°C 46.4°F8.0°C 84% 6.8 mph S10.9 kmh S 9.8 mph15.8 kmh 29.38 in994.9 mb 0.02 in0.5 mm 0.00 in0.0 mm 0.02 in0.5 mm
01:50 AM 51.1°F10.6°C 46.4°F8.0°C 84% 7.8 mph S12.6 kmh S 9.2 mph14.8 kmh 29.38 in994.9 mb 0.04 in1.0 mm 0.12 in3.0 mm 0.04 in1.0 mm
02:00 AM 51.3°F10.7°C 46.6°F8.1°C 84% 9.0 mph S14.5 kmh S 13.0 mph20.9 kmh 29.37 in994.6 mb 0.04 in1.0 mm 0.00 in0.0 mm 0.04 in1.0 mm
02:10 AM 51.3°F10.7°C 46.3°F7.9°C 83% 8.2 mph S13.2 kmh S 10.7 mph17.2 kmh 29.38 in994.9 mb 0.02 in0.5 mm 0.00 in0.0 mm 0.04 in1.0 mm
02:20 AM 51.3°F10.7°C 46.3°F7.9°C 83% 8.0 mph S12.9 kmh S 11.4 mph18.3 kmh 29.37 in994.6 mb 0.02 in0.5 mm 0.00 in0.0 mm 0.05 in1.3 mm
02:30 AM 51.1°F10.6°C 46.1°F7.8°C 83% 7.6 mph SSE12.2 kmh SSE 9.8 mph15.8 kmh 29.36 in994.2 mb 0.02 in0.5 mm 0.00 in0.0 mm 0.05 in1.3 mm
02:40 AM 51.1°F10.6°C 46.4°F8.0°C 84% 7.6 mph SE12.2 kmh SE 8.3 mph13.4 kmh 29.36 in994.2 mb 0.02 in0.5 mm 0.00 in0.0 mm 0.05 in1.3 mm
02:50 AM 51.1°F10.6°C 46.4°F8.0°C 84% 7.1 mph S11.4 kmh S 13.6 mph21.9 kmh 29.36 in994.2 mb 0.01 in0.3 mm 0.00 in0.0 mm 0.05 in1.3 mm
03:00 AM 51.3°F10.7°C 46.6°F8.1°C 84% 7.9 mph SSE12.7 kmh SSE 10.7 mph17.2 kmh 29.35 in993.9 mb 0.01 in0.3 mm 0.00 in0.0 mm 0.05 in1.3 mm
03:10 AM 51.3°F10.7°C 46.3°F7.9°C 83% 9.3 mph S15.0 kmh S 12.1 mph19.5 kmh 29.35 in993.9 mb 0.01 in0.3 mm 0.00 in0.0 mm 0.05 in1.3 mm
03:20 AM 51.3°F10.7°C 46.3°F7.9°C 83% 10.1 mph S16.3 kmh S 12.1 mph19.5 kmh 29.35 in993.9 mb 0.00 in0.0 mm 0.00 in0.0 mm 0.05 in1.3 mm
03:30 AM 51.1°F10.6°C 46.1°F7.8°C 83% 9.6 mph SSE15.4 kmh SSE 10.7 mph17.2 kmh 29.35 in993.9 mb 0.00 in0.0 mm 0.00 in0.0 mm 0.05 in1.3 mm
03:40 AM 51.3°F10.7°C 46.3°F7.9°C 83% 7.9 mph S12.7 kmh S 10.7 mph17.2 kmh 29.34 in993.6 mb 0.00 in0.0 mm 0.00 in0.0 mm 0.05 in1.3 mm
03:50 AM 51.3°F10.7°C 46.3°F7.9°C 83% 9.4 mph S15.1 kmh S 13.6 mph21.9 kmh 29.34 in993.6 mb 0.00 in0.0 mm 0.00 in0.0 mm 0.05 in1.3 mm
04:00 AM 51.1°F10.6°C 46.1°F7.8°C 83% 7.8 mph S12.6 kmh S 10.7 mph17.2 kmh 29.33 in993.2 mb 0.00 in0.0 mm 0.00 in0.0 mm 0.05 in1.3 mm
04:10 AM 51.1°F10.6°C 46.1°F7.8°C 83% 8.1 mph SSE13.0 kmh SSE 13.6 mph21.9 kmh 29.33 in993.2 mb 0.00 in0.0 mm 0.00 in0.0 mm 0.05 in1.3 mm
04:20 AM 51.3°F10.7°C 46.3°F7.9°C 83% 7.6 mph S12.2 kmh S 10.7 mph17.2 kmh 29.33 in993.2 mb 0.00 in0.0 mm 0.00 in0.0 mm 0.05 in1.3 mm
04:30 AM 51.3°F10.7°C 46.3°F7.9°C 83% 8.3 mph SSE13.4 kmh SSE 12.1 mph19.5 kmh 29.33 in993.2 mb 0.00 in0.0 mm 0.00 in0.0 mm 0.05 in1.3 mm
04:40 AM 51.3°F10.7°C 46.3°F7.9°C 83% 8.7 mph S14.0 kmh S 13.6 mph21.9 kmh 29.34 in993.6 mb 0.00 in0.0 mm 0.00 in0.0 mm 0.05 in1.3 mm
04:50 AM 51.3°F10.7°C 46.3°F7.9°C 83% 10.1 mph S16.3 kmh S 13.6 mph21.9 kmh 29.33 in993.2 mb 0.00 in0.0 mm 0.00 in0.0 mm 0.05 in1.3 mm
05:00 AM 51.3°F10.7°C 46.3°F7.9°C 83% 9.6 mph S15.4 kmh S 12.1 mph19.5 kmh 29.33 in993.2 mb 0.00 in0.0 mm 0.00 in0.0 mm 0.05 in1.3 mm
05:10 AM 51.3°F10.7°C 46.3°F7.9°C 83% 8.1 mph S13.0 kmh S 10.7 mph17.2 kmh 29.33 in993.2 mb 0.00 in0.0 mm 0.00 in0.0 mm 0.05 in1.3 mm
05:20 AM 51.3°F10.7°C 46.3°F7.9°C 83% 8.8 mph S14.2 kmh S 13.6 mph21.9 kmh 29.33 in993.2 mb 0.00 in0.0 mm 0.00 in0.0 mm 0.05 in1.3 mm
05:30 AM 51.4°F10.8°C 46.5°F8.1°C 83% 8.4 mph S13.5 kmh S 13.0 mph20.9 kmh 29.32 in992.9 mb 0.00 in0.0 mm 0.00 in0.0 mm 0.05 in1.3 mm
05:40 AM 51.4°F10.8°C 46.5°F8.1°C 83% 9.0 mph S14.5 kmh S 12.1 mph19.5 kmh 29.32 in992.9 mb 0.00 in0.0 mm 0.00 in0.0 mm 0.05 in1.3 mm
05:50 AM 51.4°F10.8°C 46.5°F8.1°C 83% 8.1 mph S13.0 kmh S 9.8 mph15.8 kmh 29.31 in992.6 mb 0.00 in0.0 mm 0.00 in0.0 mm 0.05 in1.3 mm
06:00 AM 51.4°F10.8°C 46.5°F8.1°C 83% 7.6 mph S12.2 kmh S 11.4 mph18.3 kmh 29.32 in992.9 mb 0.00 in0.0 mm 0.00 in0.0 mm 0.05 in1.3 mm
06:10 AM 51.4°F10.8°C 46.1°F7.8°C 82% 8.0 mph SSW12.9 kmh SSW 11.4 mph18.3 kmh 29.32 in992.9 mb 0.00 in0.0 mm 0.00 in0.0 mm 0.05 in1.3 mm
06:20 AM 51.4°F10.8°C 46.1°F7.8°C 82% 9.8 mph S15.8 kmh S 13.0 mph20.9 kmh 29.32 in992.9 mb 0.00 in0.0 mm 0.00 in0.0 mm 0.05 in1.3 mm
06:30 AM 51.4°F10.8°C 46.1°F7.8°C 82% 8.5 mph S13.7 kmh S 10.7 mph17.2 kmh 29.31 in992.6 mb 0.00 in0.0 mm 0.00 in0.0 mm 0.05 in1.3 mm
06:40 AM 51.4°F10.8°C 46.1°F7.8°C 82% 8.3 mph S13.4 kmh S 11.4 mph18.3 kmh 29.31 in992.6 mb 0.00 in0.0 mm 0.00 in0.0 mm 0.05 in1.3 mm
06:50 AM 51.6°F10.9°C 46.3°F7.9°C 82% 7.4 mph S11.9 kmh S 9.2 mph14.8 kmh 29.32 in992.9 mb 0.00 in0.0 mm 0.00 in0.0 mm 0.05 in1.3 mm
07:00 AM 51.6°F10.9°C 46.3°F7.9°C 82% 6.8 mph S10.9 kmh S 9.8 mph15.8 kmh 29.31 in992.6 mb 0.00 in0.0 mm 0.00 in0.0 mm 0.05 in1.3 mm
07:10 AM 51.6°F10.9°C 46.3°F7.9°C 82% 6.9 mph S11.1 kmh S 9.2 mph14.8 kmh 29.30 in992.2 mb 0.00 in0.0 mm 0.00 in0.0 mm 0.05 in1.3 mm
07:20 AM 51.8°F11.0°C 46.5°F8.1°C 82% 8.2 mph S13.2 kmh S 11.4 mph18.3 kmh 29.30 in992.2 mb 0.00 in0.0 mm 0.00 in0.0 mm 0.05 in1.3 mm
07:30 AM 52.0°F11.1°C 46.3°F7.9°C 81% 7.7 mph S12.4 kmh S 9.2 mph14.8 kmh 29.30 in992.2 mb 0.00 in0.0 mm 0.00 in0.0 mm 0.05 in1.3 mm
07:40 AM 52.2°F11.2°C 46.5°F8.1°C 81% 9.4 mph SSE15.1 kmh SSE 13.0 mph20.9 kmh 29.30 in992.2 mb 0.00 in0.0 mm 0.00 in0.0 mm 0.05 in1.3 mm
07:50 AM 52.3°F11.3°C 46.7°F8.2°C 81% 8.6 mph S13.8 kmh S 15.2 mph24.5 kmh 29.29 in991.9 mb 0.00 in0.0 mm 0.00 in0.0 mm 0.05 in1.3 mm
08:00 AM 52.5°F11.4°C 46.5°F8.1°C 80% 8.7 mph S14.0 kmh S 12.1 mph19.5 kmh 29.29 in991.9 mb 0.00 in0.0 mm 0.00 in0.0 mm 0.05 in1.3 mm
08:10 AM 52.5°F11.4°C 46.5°F8.1°C 80% 9.8 mph S15.8 kmh S 12.1 mph19.5 kmh 29.29 in991.9 mb 0.00 in0.0 mm 0.00 in0.0 mm 0.05 in1.3 mm
08:20 AM 52.5°F11.4°C 46.5°F8.1°C 80% 12.8 mph S20.6 kmh S 17.4 mph28.0 kmh 29.29 in991.9 mb 0.00 in0.0 mm 0.00 in0.0 mm 0.05 in1.3 mm
08:30 AM 52.7°F11.5°C 46.0°F7.8°C 78% 9.9 mph S15.9 kmh S 13.6 mph21.9 kmh 29.29 in991.9 mb 0.00 in0.0 mm 0.00 in0.0 mm 0.05 in1.3 mm
08:40 AM 52.7°F11.5°C 45.4°F7.4°C 76% 10.2 mph S16.4 kmh S 16.8 mph27.0 kmh 29.28 in991.5 mb 0.00 in0.0 mm 0.00 in0.0 mm 0.05 in1.3 mm
08:50 AM 52.7°F11.5°C 45.0°F7.2°C 75% 9.4 mph SSW15.1 kmh SSW 13.6 mph21.9 kmh 29.29 in991.9 mb 0.00 in0.0 mm 0.00 in0.0 mm 0.05 in1.3 mm
09:00 AM 53.2°F11.8°C 44.8°F7.1°C 73% 10.7 mph SE17.2 kmh SE 15.9 mph25.6 kmh 29.29 in991.9 mb 0.00 in0.0 mm 0.00 in0.0 mm 0.05 in1.3 mm
09:10 AM 53.8°F12.1°C 45.0°F7.2°C 72% 11.6 mph SW18.7 kmh SW 16.8 mph27.0 kmh 29.28 in991.5 mb 0.00 in0.0 mm 0.00 in0.0 mm 0.05 in1.3 mm
09:20 AM 53.8°F12.1°C 44.6°F7.0°C 71% 12.3 mph S19.8 kmh S 17.4 mph28.0 kmh 29.27 in991.2 mb 0.00 in0.0 mm 0.00 in0.0 mm 0.05 in1.3 mm
09:30 AM 54.1°F12.3°C 45.0°F7.2°C 71% 12.6 mph SSW20.3 kmh SSW 16.8 mph27.0 kmh 29.27 in991.2 mb 0.00 in0.0 mm 0.00 in0.0 mm 0.05 in1.3 mm
09:40 AM 53.8°F12.1°C 44.2°F6.8°C 70% 11.3 mph S18.2 kmh S 14.5 mph23.3 kmh 29.27 in991.2 mb 0.00 in0.0 mm 0.00 in0.0 mm 0.05 in1.3 mm
09:50 AM 54.0°F12.2°C 44.4°F6.9°C 70% 12.3 mph SSW19.8 kmh SSW 19.0 mph30.6 kmh 29.27 in991.2 mb 0.00 in0.0 mm 0.00 in0.0 mm 0.05 in1.3 mm
10:00 AM 54.5°F12.5°C 43.4°F6.3°C 66% 13.6 mph SSE21.9 kmh SSE 19.0 mph30.6 kmh 29.26 in990.9 mb 0.00 in0.0 mm 0.00 in0.0 mm 0.05 in1.3 mm
10:10 AM 54.3°F12.4°C 44.8°F7.1°C 70% 11.4 mph S18.3 kmh S 15.2 mph24.5 kmh 29.27 in991.2 mb 0.00 in0.0 mm 0.00 in0.0 mm 0.05 in1.3 mm
10:20 AM 53.8°F12.1°C 44.2°F6.8°C 70% 13.2 mph S21.2 kmh S 16.8 mph27.0 kmh 29.27 in991.2 mb 0.00 in0.0 mm 0.00 in0.0 mm 0.05 in1.3 mm
10:30 AM 53.2°F11.8°C 44.1°F6.7°C 71% 13.9 mph S22.4 kmh S 20.6 mph33.2 kmh 29.27 in991.2 mb 0.00 in0.0 mm 0.00 in0.0 mm 0.05 in1.3 mm
10:40 AM 52.9°F11.6°C 44.5°F6.9°C 73% 15.9 mph S25.6 kmh S 20.6 mph33.2 kmh 29.25 in990.5 mb 0.00 in0.0 mm 0.00 in0.0 mm 0.05 in1.3 mm
10:50 AM 52.2°F11.2°C 44.8°F7.1°C 76% 17.0 mph S27.4 kmh S 22.1 mph35.6 kmh 29.25 in990.5 mb 0.00 in0.0 mm 0.00 in0.0 mm 0.05 in1.3 mm
11:00 AM 52.0°F11.1°C 45.3°F7.4°C 78% 14.0 mph S22.5 kmh S 19.0 mph30.6 kmh 29.25 in990.5 mb 0.00 in0.0 mm 0.00 in0.0 mm 0.05 in1.3 mm
11:10 AM 52.0°F11.1°C 45.7°F7.6°C 79% 13.2 mph S21.2 kmh S 17.4 mph28.0 kmh 29.24 in990.2 mb 0.00 in0.0 mm 0.00 in0.0 mm 0.05 in1.3 mm
11:20 AM 51.8°F11.0°C 45.5°F7.5°C 79% 13.7 mph S22.0 kmh S 19.7 mph31.7 kmh 29.25 in990.5 mb 0.00 in0.0 mm 0.00 in0.0 mm 0.05 in1.3 mm
11:30 AM 51.8°F11.0°C 45.8°F7.7°C 80% 13.2 mph S21.2 kmh S 18.3 mph29.5 kmh 29.25 in990.5 mb 0.01 in0.3 mm 0.06 in1.5 mm 0.06 in1.5 mm
11:40 AM 51.6°F10.9°C 45.7°F7.6°C 80% 14.4 mph S23.2 kmh S 19.0 mph30.6 kmh 29.25 in990.5 mb 0.01 in0.3 mm 0.00 in0.0 mm 0.06 in1.5 mm
11:50 AM 51.6°F10.9°C 45.7°F7.6°C 80% 11.0 mph SSE17.7 kmh SSE 14.5 mph23.3 kmh 29.25 in990.5 mb 0.02 in0.5 mm 0.06 in1.5 mm 0.07 in1.8 mm
12:00 PM 52.0°F11.1°C 46.3°F7.9°C 81% 10.0 mph SSW16.1 kmh SSW 15.9 mph25.6 kmh 29.24 in990.2 mb 0.02 in0.5 mm 0.00 in0.0 mm 0.07 in1.8 mm
12:10 PM 52.5°F11.4°C 46.5°F8.1°C 80% 10.6 mph SSW17.1 kmh SSW 15.9 mph25.6 kmh 29.24 in990.2 mb 0.02 in0.5 mm 0.00 in0.0 mm 0.07 in1.8 mm
12:20 PM 53.1°F11.7°C 46.7°F8.2°C 79% 9.3 mph SW15.0 kmh SW 15.9 mph25.6 kmh 29.23 in989.8 mb 0.02 in0.5 mm 0.00 in0.0 mm 0.07 in1.8 mm
12:30 PM 53.1°F11.7°C 46.4°F8.0°C 78% 9.9 mph S15.9 kmh S 17.4 mph28.0 kmh 29.24 in990.2 mb 0.01 in0.3 mm 0.00 in0.0 mm 0.07 in1.8 mm
12:40 PM 50.2°F10.1°C 42.6°F5.9°C 75% 11.4 mph W18.3 kmh W 18.3 mph29.5 kmh 29.27 in991.2 mb 0.06 in1.5 mm 0.30 in7.6 mm 0.12 in3.0 mm
12:50 PM 50.2°F10.1°C 43.6°F6.4°C 78% 7.1 mph W11.4 kmh W 9.8 mph15.8 kmh 29.27 in991.2 mb 0.06 in1.5 mm 0.00 in0.0 mm 0.13 in3.3 mm
01:00 PM 50.4°F10.2°C 43.8°F6.6°C 78% 8.1 mph W13.0 kmh W 9.8 mph15.8 kmh 29.27 in991.2 mb 0.06 in1.5 mm 0.00 in0.0 mm 0.13 in3.3 mm
01:10 PM 50.7°F10.4°C 43.4°F6.3°C 76% 7.4 mph WNW11.9 kmh WNW 9.8 mph15.8 kmh 29.27 in991.2 mb 0.06 in1.5 mm 0.00 in0.0 mm 0.13 in3.3 mm
01:20 PM 50.5°F10.3°C 42.9°F6.1°C 75% 8.0 mph SSW12.9 kmh SSW 12.1 mph19.5 kmh 29.27 in991.2 mb 0.06 in1.5 mm 0.00 in0.0 mm 0.13 in3.3 mm
01:30 PM 51.3°F10.7°C 43.6°F6.4°C 75% 7.0 mph SW11.3 kmh SW 10.7 mph17.2 kmh 29.27 in991.2 mb 0.07 in1.8 mm 0.06 in1.5 mm 0.14 in3.6 mm
01:40 PM 52.0°F11.1°C 44.0°F6.7°C 74% 7.3 mph WSW11.7 kmh WSW 8.3 mph13.4 kmh 29.26 in990.9 mb 0.02 in0.5 mm 0.00 in0.0 mm 0.14 in3.6 mm
01:50 PM 53.6°F12.0°C 44.8°F7.1°C 72% 9.1 mph W14.6 kmh W 11.4 mph18.3 kmh 29.27 in991.2 mb 0.01 in0.3 mm 0.00 in0.0 mm 0.14 in3.6 mm
02:00 PM 53.4°F11.9°C 43.9°F6.6°C 70% 8.4 mph WSW13.5 kmh WSW 11.4 mph18.3 kmh 29.28 in991.5 mb 0.01 in0.3 mm 0.00 in0.0 mm 0.14 in3.6 mm
02:10 PM 54.7°F12.6°C 43.2°F6.2°C 65% 8.8 mph NW14.2 kmh NW 13.0 mph20.9 kmh 29.28 in991.5 mb 0.01 in0.3 mm 0.00 in0.0 mm 0.14 in3.6 mm
02:20 PM 53.4°F11.9°C 43.9°F6.6°C 70% 11.5 mph WNW18.5 kmh WNW 13.6 mph21.9 kmh 29.28 in991.5 mb 0.00 in0.0 mm 0.00 in0.0 mm 0.14 in3.6 mm
02:30 PM 54.5°F12.5°C 43.4°F6.3°C 66% 8.9 mph WSW14.3 kmh WSW 10.7 mph17.2 kmh 29.29 in991.9 mb 0.00 in0.0 mm 0.00 in0.0 mm 0.14 in3.6 mm
02:40 PM 54.0°F12.2°C 42.1°F5.6°C 64% 10.3 mph W16.6 kmh W 13.0 mph20.9 kmh 29.29 in991.9 mb 0.00 in0.0 mm 0.00 in0.0 mm 0.14 in3.6 mm
02:50 PM 55.4°F13.0°C 42.2°F5.7°C 61% 8.6 mph W13.8 kmh W 13.0 mph20.9 kmh 29.29 in991.9 mb 0.00 in0.0 mm 0.00 in0.0 mm 0.14 in3.6 mm
03:00 PM 54.1°F12.3°C 41.4°F5.2°C 62% 9.6 mph WNW15.4 kmh WNW 14.5 mph23.3 kmh 29.29 in991.9 mb 0.00 in0.0 mm 0.00 in0.0 mm 0.14 in3.6 mm
03:10 PM 53.2°F11.8°C 40.6°F4.8°C 62% 7.5 mph WNW12.1 kmh WNW 10.7 mph17.2 kmh 29.29 in991.9 mb 0.00 in0.0 mm 0.00 in0.0 mm 0.14 in3.6 mm
03:20 PM 52.3°F11.3°C 39.7°F4.3°C 62% 6.7 mph W10.8 kmh W 10.7 mph17.2 kmh 29.29 in991.9 mb 0.00 in0.0 mm 0.00 in0.0 mm 0.14 in3.6 mm
03:30 PM 53.1°F11.7°C 40.4°F4.7°C 62% 7.7 mph W12.4 kmh W 13.0 mph20.9 kmh 29.30 in992.2 mb 0.00 in0.0 mm 0.00 in0.0 mm 0.14 in3.6 mm
03:40 PM 53.6°F12.0°C 40.9°F4.9°C 62% 5.3 mph WSW8.5 kmh WSW 8.3 mph13.4 kmh 29.29 in991.9 mb 0.00 in0.0 mm 0.00 in0.0 mm 0.14 in3.6 mm
03:50 PM 55.6°F13.1°C 40.6°F4.8°C 57% 5.8 mph W9.3 kmh W 9.2 mph14.8 kmh 29.29 in991.9 mb 0.00 in0.0 mm 0.00 in0.0 mm 0.14 in3.6 mm
04:00 PM 56.3°F13.5°C 38.4°F3.6°C 51% 7.6 mph SSW12.2 kmh SSW 12.1 mph19.5 kmh 29.29 in991.9 mb 0.00 in0.0 mm 0.00 in0.0 mm 0.14 in3.6 mm
04:10 PM 54.9°F12.7°C 38.5°F3.6°C 54% 6.9 mph NW11.1 kmh NW 9.8 mph15.8 kmh 29.29 in991.9 mb 0.00 in0.0 mm 0.00 in0.0 mm 0.14 in3.6 mm
04:20 PM 56.1°F13.4°C 39.2°F4.0°C 53% 6.4 mph NW10.3 kmh NW 13.0 mph20.9 kmh 29.29 in991.9 mb 0.00 in0.0 mm 0.00 in0.0 mm 0.14 in3.6 mm
04:30 PM 56.5°F13.6°C 39.1°F3.9°C 52% 6.6 mph WSW10.6 kmh WSW 9.8 mph15.8 kmh 29.29 in991.9 mb 0.00 in0.0 mm 0.00 in0.0 mm 0.14 in3.6 mm
04:40 PM 54.9°F12.7°C 38.5°F3.6°C 54% 6.9 mph SW11.1 kmh SW 9.8 mph15.8 kmh 29.29 in991.9 mb 0.00 in0.0 mm 0.00 in0.0 mm 0.14 in3.6 mm
04:50 PM 55.8°F13.2°C 39.4°F4.1°C 54% 5.7 mph WNW9.2 kmh WNW 7.6 mph12.2 kmh 29.30 in992.2 mb 0.00 in0.0 mm 0.00 in0.0 mm 0.14 in3.6 mm
05:00 PM 54.0°F12.2°C 39.5°F4.2°C 58% 6.5 mph SSW10.5 kmh SSW 10.7 mph17.2 kmh 29.30 in992.2 mb 0.00 in0.0 mm 0.00 in0.0 mm 0.14 in3.6 mm
05:10 PM 51.4°F10.8°C 38.9°F3.8°C 62% 5.8 mph WSW9.3 kmh WSW 8.3 mph13.4 kmh 29.31 in992.6 mb 0.00 in0.0 mm 0.00 in0.0 mm 0.14 in3.6 mm
05:20 PM 51.1°F10.6°C 38.9°F3.8°C 63% 3.1 mph NW5.0 kmh NW 4.5 mph7.2 kmh 29.31 in992.6 mb 0.00 in0.0 mm 0.00 in0.0 mm 0.14 in3.6 mm
05:30 PM 51.1°F10.6°C 39.3°F4.1°C 64% 3.9 mph WSW6.3 kmh WSW 7.6 mph12.2 kmh 29.31 in992.6 mb 0.00 in0.0 mm 0.00 in0.0 mm 0.14 in3.6 mm
05:40 PM 50.9°F10.5°C 39.2°F4.0°C 64% 4.8 mph SSW7.7 kmh SSW 6.9 mph11.1 kmh 29.30 in992.2 mb 0.00 in0.0 mm 0.00 in0.0 mm 0.14 in3.6 mm
05:50 PM 50.7°F10.4°C 39.0°F3.9°C 64% 4.4 mph NE7.1 kmh NE 8.3 mph13.4 kmh 29.31 in992.6 mb 0.00 in0.0 mm 0.00 in0.0 mm 0.14 in3.6 mm
06:00 PM 50.5°F10.3°C 38.8°F3.8°C 64% 4.3 mph W6.9 kmh W 5.4 mph8.7 kmh 29.32 in992.9 mb 0.00 in0.0 mm 0.00 in0.0 mm 0.14 in3.6 mm
06:10 PM 50.4°F10.2°C 38.7°F3.7°C 64% 5.7 mph SSW9.2 kmh SSW 8.3 mph13.4 kmh 29.32 in992.9 mb 0.00 in0.0 mm 0.00 in0.0 mm 0.14 in3.6 mm
06:20 PM 50.0°F10.0°C 38.3°F3.5°C 64% 6.4 mph S10.3 kmh S 9.8 mph15.8 kmh 29.33 in993.2 mb 0.00 in0.0 mm 0.00 in0.0 mm 0.14 in3.6 mm
06:30 PM 50.0°F10.0°C 38.3°F3.5°C 64% 4.4 mph SW7.1 kmh SW 6.9 mph11.1 kmh 29.32 in992.9 mb 0.00 in0.0 mm 0.00 in0.0 mm 0.14 in3.6 mm
06:40 PM 49.8°F9.9°C 37.3°F2.9°C 62% 7.2 mph WSW11.6 kmh WSW 10.7 mph17.2 kmh 29.34 in993.6 mb 0.00 in0.0 mm 0.00 in0.0 mm 0.14 in3.6 mm
06:50 PM 49.5°F9.7°C 37.0°F2.8°C 62% 4.4 mph W7.1 kmh W 9.2 mph14.8 kmh 29.33 in993.2 mb 0.00 in0.0 mm 0.00 in0.0 mm 0.14 in3.6 mm
07:00 PM 49.3°F9.6°C 37.2°F2.9°C 63% 4.2 mph SW6.8 kmh SW 6.0 mph9.7 kmh 29.34 in993.6 mb 0.00 in0.0 mm 0.00 in0.0 mm 0.14 in3.6 mm
07:10 PM 48.9°F9.4°C 36.9°F2.7°C 63% 5.2 mph SSW8.4 kmh SSW 6.9 mph11.1 kmh 29.34 in993.6 mb 0.00 in0.0 mm 0.00 in0.0 mm 0.14 in3.6 mm
07:20 PM 48.6°F9.2°C 36.9°F2.7°C 64% 5.3 mph SW8.5 kmh SW 7.6 mph12.2 kmh 29.34 in993.6 mb 0.00 in0.0 mm 0.00 in0.0 mm 0.14 in3.6 mm
07:30 PM 48.4°F9.1°C 37.2°F2.9°C 65% 5.4 mph SW8.7 kmh SW 7.6 mph12.2 kmh 29.34 in993.6 mb 0.00 in0.0 mm 0.00 in0.0 mm 0.14 in3.6 mm
07:40 PM 48.4°F9.1°C 37.6°F3.1°C 66% 6.2 mph W10.0 kmh W 10.7 mph17.2 kmh 29.34 in993.6 mb 0.00 in0.0 mm 0.00 in0.0 mm 0.14 in3.6 mm
07:50 PM 48.4°F9.1°C 37.6°F3.1°C 66% 6.1 mph SW9.8 kmh SW 9.8 mph15.8 kmh 29.34 in993.6 mb 0.00 in0.0 mm 0.00 in0.0 mm 0.14 in3.6 mm
08:00 PM 48.2°F9.0°C 37.8°F3.2°C 67% 5.8 mph S9.3 kmh S 9.2 mph14.8 kmh 29.35 in993.9 mb 0.00 in0.0 mm 0.00 in0.0 mm 0.14 in3.6 mm
08:10 PM 48.2°F9.0°C 38.5°F3.6°C 69% 5.0 mph SSW8.0 kmh SSW 6.9 mph11.1 kmh 29.35 in993.9 mb 0.00 in0.0 mm 0.00 in0.0 mm 0.14 in3.6 mm
08:20 PM 47.8°F8.8°C 38.2°F3.4°C 69% 5.8 mph WSW9.3 kmh WSW 9.2 mph14.8 kmh 29.35 in993.9 mb 0.01 in0.3 mm 0.06 in1.5 mm 0.15 in3.8 mm
08:30 PM 47.7°F8.7°C 37.6°F3.1°C 68% 8.5 mph SW13.7 kmh SW 13.6 mph21.9 kmh 29.36 in994.2 mb 0.01 in0.3 mm 0.00 in0.0 mm 0.15 in3.8 mm
08:40 PM 46.9°F8.3°C 36.9°F2.7°C 68% 5.8 mph SW9.3 kmh SW 9.2 mph14.8 kmh 29.36 in994.2 mb 0.01 in0.3 mm 0.00 in0.0 mm 0.15 in3.8 mm
08:50 PM 46.6°F8.1°C 37.0°F2.8°C 69% 4.9 mph WSW7.9 kmh WSW 6.9 mph11.1 kmh 29.36 in994.2 mb 0.01 in0.3 mm 0.00 in0.0 mm 0.15 in3.8 mm
09:00 PM 46.6°F8.1°C 37.0°F2.8°C 69% 6.6 mph SW10.6 kmh SW 9.2 mph14.8 kmh 29.36 in994.2 mb 0.01 in0.3 mm 0.00 in0.0 mm 0.15 in3.8 mm
09:10 PM 46.8°F8.2°C 37.1°F2.8°C 69% 7.9 mph WNW12.7 kmh WNW 9.8 mph15.8 kmh 29.35 in993.9 mb 0.01 in0.3 mm 0.00 in0.0 mm 0.15 in3.8 mm
09:20 PM 46.6°F8.1°C 37.3°F2.9°C 70% 7.4 mph S11.9 kmh S 12.1 mph19.5 kmh 29.36 in994.2 mb 0.00 in0.0 mm 0.00 in0.0 mm 0.15 in3.8 mm
09:30 PM 46.4°F8.0°C 37.2°F2.9°C 70% 6.8 mph SW10.9 kmh SW 10.7 mph17.2 kmh 29.36 in994.2 mb 0.00 in0.0 mm 0.00 in0.0 mm 0.15 in3.8 mm
09:40 PM 46.4°F8.0°C 37.2°F2.9°C 70% 6.2 mph SSW10.0 kmh SSW 9.8 mph15.8 kmh 29.36 in994.2 mb 0.00 in0.0 mm 0.00 in0.0 mm 0.15 in3.8 mm
09:50 PM 46.2°F7.9°C 37.0°F2.8°C 70% 7.0 mph SSE11.3 kmh SSE 12.1 mph19.5 kmh 29.36 in994.2 mb 0.00 in0.0 mm 0.00 in0.0 mm 0.15 in3.8 mm
10:00 PM 46.0°F7.8°C 36.8°F2.7°C 70% 6.0 mph SSE9.7 kmh SSE 8.3 mph13.4 kmh 29.38 in994.9 mb 0.00 in0.0 mm 0.00 in0.0 mm 0.15 in3.8 mm
10:10 PM 45.7°F7.6°C 36.8°F2.7°C 71% 5.4 mph SSE8.7 kmh SSE 6.9 mph11.1 kmh 29.36 in994.2 mb 0.00 in0.0 mm 0.00 in0.0 mm 0.15 in3.8 mm
10:20 PM 46.0°F7.8°C 37.2°F2.9°C 71% 4.6 mph S7.4 kmh S 7.6 mph12.2 kmh 29.37 in994.6 mb 0.00 in0.0 mm 0.00 in0.0 mm 0.15 in3.8 mm
10:30 PM 46.4°F8.0°C 37.2°F2.9°C 70% 5.3 mph SSW8.5 kmh SSW 8.3 mph13.4 kmh 29.37 in994.6 mb 0.00 in0.0 mm 0.00 in0.0 mm 0.15 in3.8 mm
10:40 PM 46.2°F7.9°C 37.0°F2.8°C 70% 5.5 mph SW8.9 kmh SW 9.2 mph14.8 kmh 29.37 in994.6 mb 0.00 in0.0 mm 0.00 in0.0 mm 0.15 in3.8 mm
10:50 PM 45.3°F7.4°C 38.2°F3.4°C 76% 6.9 mph W11.1 kmh W 8.3 mph13.4 kmh 29.38 in994.9 mb 0.00 in0.0 mm 0.00 in0.0 mm 0.15 in3.8 mm
11:00 PM 44.8°F7.1°C 37.7°F3.2°C 76% 7.2 mph WSW11.6 kmh WSW 9.8 mph15.8 kmh 29.37 in994.6 mb 0.00 in0.0 mm 0.00 in0.0 mm 0.15 in3.8 mm
11:10 PM 44.4°F6.9°C 36.7°F2.6°C 74% 7.6 mph WSW12.2 kmh WSW 11.4 mph18.3 kmh 29.38 in994.9 mb 0.00 in0.0 mm 0.00 in0.0 mm 0.15 in3.8 mm
11:20 PM 44.1°F6.7°C 36.3°F2.4°C 74% 5.5 mph SW8.9 kmh SW 7.6 mph12.2 kmh 29.38 in994.9 mb 0.00 in0.0 mm 0.00 in0.0 mm 0.15 in3.8 mm
11:30 PM 43.9°F6.6°C 35.8°F2.1°C 73% 6.1 mph N9.8 kmh N 9.2 mph14.8 kmh 29.38 in994.9 mb 0.00 in0.0 mm 0.00 in0.0 mm 0.15 in3.8 mm
11:40 PM 43.5°F6.4°C 35.8°F2.1°C 74% 5.3 mph S8.5 kmh S 8.3 mph13.4 kmh 29.38 in994.9 mb 0.00 in0.0 mm 0.00 in0.0 mm 0.15 in3.8 mm
11:50 PM 43.3°F6.3°C 36.0°F2.2°C 75% 6.5 mph WSW10.5 kmh WSW 9.2 mph14.8 kmh 29.38 in994.9 mb 0.00 in0.0 mm 0.00 in0.0 mm 0.15 in3.8 mm